sensor_id;sensor_type;location;lat;lon;timestamp;pressure;altitude;pressure_sealevel;temperature;humidity
22572;BME280;11452;53.368;14.658;2022-11-20T00:02:15;100470.38;;;4.88;74.86
22572;BME280;11452;53.368;14.658;2022-11-20T00:07:21;100470.48;;;4.73;74.57
22572;BME280;11452;53.368;14.658;2022-11-20T00:12:26;100462.48;;;4.75;74.96
22572;BME280;11452;53.368;14.658;2022-11-20T00:17:32;100461.67;;;4.73;74.88
22572;BME280;11452;53.368;14.658;2022-11-20T00:22:37;100452.06;;;4.70;74.98
22572;BME280;11452;53.368;14.658;2022-11-20T00:27:43;100463.56;;;4.69;74.81
22572;BME280;11452;53.368;14.658;2022-11-20T00:32:48;100461.22;;;4.62;74.77
22572;BME280;11452;53.368;14.658;2022-11-20T00:37:53;100462.03;;;4.64;74.96
22572;BME280;11452;53.368;14.658;2022-11-20T00:43:01;100470.59;;;4.70;75.28
22572;BME280;11452;53.368;14.658;2022-11-20T00:48:07;100462.78;;;4.79;75.14
22572;BME280;11452;53.368;14.658;2022-11-20T00:53:12;100468.13;;;4.77;74.98
22572;BME280;11452;53.368;14.658;2022-11-20T00:58:18;100474.80;;;4.76;74.87
22572;BME280;11452;53.368;14.658;2022-11-20T01:03:23;100475.88;;;4.70;74.73
22572;BME280;11452;53.368;14.658;2022-11-20T01:08:32;100472.56;;;4.77;74.91
22572;BME280;11452;53.368;14.658;2022-11-20T01:13:38;100474.23;;;4.79;74.95
22572;BME280;11452;53.368;14.658;2022-11-20T01:18:47;100466.56;;;4.83;74.81
22572;BME280;11452;53.368;14.658;2022-11-20T01:23:52;100462.73;;;4.80;74.55
22572;BME280;11452;53.368;14.658;2022-11-20T01:28:59;100466.75;;;4.79;74.74
22572;BME280;11452;53.368;14.658;2022-11-20T01:34:07;100465.03;;;4.78;74.82
22572;BME280;11452;53.368;14.658;2022-11-20T01:39:16;100459.73;;;4.78;74.72
22572;BME280;11452;53.368;14.658;2022-11-20T01:44:56;100462.78;;;4.79;74.54
22572;BME280;11452;53.368;14.658;2022-11-20T01:50:23;100456.84;;;4.72;74.90
22572;BME280;11452;53.368;14.658;2022-11-20T01:55:29;100461.06;;;4.78;74.95
22572;BME280;11452;53.368;14.658;2022-11-20T02:00:35;100455.92;;;4.73;74.62
22572;BME280;11452;53.368;14.658;2022-11-20T02:06:01;100450.23;;;4.61;74.62
22572;BME280;11452;53.368;14.658;2022-11-20T02:11:04;100439.99;;;4.63;74.65
22572;BME280;11452;53.368;14.658;2022-11-20T02:16:22;100442.64;;;4.63;74.89
22572;BME280;11452;53.368;14.658;2022-11-20T02:21:37;100437.16;;;4.68;74.93
22572;BME280;11452;53.368;14.658;2022-11-20T02:26:57;100442.28;;;4.61;75.03
22572;BME280;11452;53.368;14.658;2022-11-20T02:32:03;100440.31;;;4.66;75.07
22572;BME280;11452;53.368;14.658;2022-11-20T02:37:08;100440.31;;;4.54;74.78
22572;BME280;11452;53.368;14.658;2022-11-20T02:42:14;100436.59;;;4.60;75.16
22572;BME280;11452;53.368;14.658;2022-11-20T02:47:19;100438.83;;;4.59;75.09
22572;BME280;11452;53.368;14.658;2022-11-20T02:52:25;100440.45;;;4.63;75.27
22572;BME280;11452;53.368;14.658;2022-11-20T02:57:31;100436.75;;;4.55;74.55
22572;BME280;11452;53.368;14.658;2022-11-20T03:02:36;100439.75;;;4.58;75.16
22572;BME280;11452;53.368;14.658;2022-11-20T03:07:43;100438.98;;;4.54;75.02
22572;BME280;11452;53.368;14.658;2022-11-20T03:12:57;100435.28;;;4.46;74.72
22572;BME280;11452;53.368;14.658;2022-11-20T03:17:58;100435.02;;;4.42;75.19
22572;BME280;11452;53.368;14.658;2022-11-20T03:23:04;100430.70;;;4.40;75.04
22572;BME280;11452;53.368;14.658;2022-11-20T03:28:09;100433.45;;;4.37;74.78
22572;BME280;11452;53.368;14.658;2022-11-20T03:33:15;100426.88;;;4.35;75.19
22572;BME280;11452;53.368;14.658;2022-11-20T03:38:20;100425.20;;;4.21;74.78
22572;BME280;11452;53.368;14.658;2022-11-20T03:43:31;100417.63;;;4.10;75.05
22572;BME280;11452;53.368;14.658;2022-11-20T03:48:37;100413.91;;;4.16;75.55
22572;BME280;11452;53.368;14.658;2022-11-20T03:53:44;100403.63;;;4.20;75.70
22572;BME280;11452;53.368;14.658;2022-11-20T03:58:49;100401.39;;;4.21;75.55
22572;BME280;11452;53.368;14.658;2022-11-20T04:03:56;100398.40;;;4.18;75.54
22572;BME280;11452;53.368;14.658;2022-11-20T04:09:02;100399.06;;;4.12;75.58
22572;BME280;11452;53.368;14.658;2022-11-20T04:14:16;100396.41;;;4.00;75.43
22572;BME280;11452;53.368;14.658;2022-11-20T04:19:17;100394.31;;;3.97;75.65
22572;BME280;11452;53.368;14.658;2022-11-20T04:24:23;100389.53;;;3.95;75.84
22572;BME280;11452;53.368;14.658;2022-11-20T04:29:30;100378.81;;;3.99;76.34
22572;BME280;11452;53.368;14.658;2022-11-20T04:34:35;100383.64;;;4.00;76.13
22572;BME280;11452;53.368;14.658;2022-11-20T04:39:41;100380.28;;;3.95;76.19
22572;BME280;11452;53.368;14.658;2022-11-20T04:44:46;100381.50;;;3.98;76.15
22572;BME280;11452;53.368;14.658;2022-11-20T04:49:52;100380.19;;;3.98;76.23
22572;BME280;11452;53.368;14.658;2022-11-20T04:54:57;100380.28;;;3.95;76.16
22572;BME280;11452;53.368;14.658;2022-11-20T05:00:04;100380.98;;;3.88;76.32
22572;BME280;11452;53.368;14.658;2022-11-20T05:05:09;100385.37;;;4.01;76.76
22572;BME280;11452;53.368;14.658;2022-11-20T05:10:15;100375.25;;;4.00;76.60
22572;BME280;11452;53.368;14.658;2022-11-20T05:15:21;100376.22;;;3.98;76.10
22572;BME280;11452;53.368;14.658;2022-11-20T05:20:26;100384.15;;;3.98;76.47
22572;BME280;11452;53.368;14.658;2022-11-20T05:25:32;100378.16;;;3.93;76.29
22572;BME280;11452;53.368;14.658;2022-11-20T05:30:37;100379.20;;;3.89;76.50
22572;BME280;11452;53.368;14.658;2022-11-20T05:35:43;100385.11;;;3.95;76.97
22572;BME280;11452;53.368;14.658;2022-11-20T05:40:48;100384.96;;;4.00;77.06
22572;BME280;11452;53.368;14.658;2022-11-20T05:45:54;100375.45;;;4.07;77.14
22572;BME280;11452;53.368;14.658;2022-11-20T05:51:02;100372.11;;;4.14;77.04
22572;BME280;11452;53.368;14.658;2022-11-20T05:56:10;100367.93;;;4.20;77.01
22572;BME280;11452;53.368;14.658;2022-11-20T06:01:24;100359.59;;;4.19;76.66
22572;BME280;11452;53.368;14.658;2022-11-20T06:06:30;100362.64;;;4.20;76.89
22572;BME280;11452;53.368;14.658;2022-11-20T06:11:35;100357.92;;;4.28;77.01
22572;BME280;11452;53.368;14.658;2022-11-20T06:16:40;100357.25;;;4.23;76.86
22572;BME280;11452;53.368;14.658;2022-11-20T06:21:48;100349.88;;;4.20;76.42
22572;BME280;11452;53.368;14.658;2022-11-20T06:26:54;100350.84;;;4.17;76.63
22572;BME280;11452;53.368;14.658;2022-11-20T06:31:59;100350.84;;;4.05;76.43
22572;BME280;11452;53.368;14.658;2022-11-20T06:37:05;100352.44;;;4.09;77.05
22572;BME280;11452;53.368;14.658;2022-11-20T06:42:10;100360.31;;;4.11;76.80
22572;BME280;11452;53.368;14.658;2022-11-20T06:47:16;100359.50;;;4.09;76.77
22572;BME280;11452;53.368;14.658;2022-11-20T06:52:22;100349.13;;;4.16;76.95
22572;BME280;11452;53.368;14.658;2022-11-20T06:57:27;100348.15;;;4.18;76.83
22572;BME280;11452;53.368;14.658;2022-11-20T07:02:32;100357.00;;;4.17;76.80
22572;BME280;11452;53.368;14.658;2022-11-20T07:07:38;100342.51;;;4.16;76.96
22572;BME280;11452;53.368;14.658;2022-11-20T07:12:48;100345.61;;;4.15;76.70
22572;BME280;11452;53.368;14.658;2022-11-20T07:17:52;100346.02;;;4.16;76.71
22572;BME280;11452;53.368;14.658;2022-11-20T07:22:58;100341.33;;;4.25;77.00
22572;BME280;11452;53.368;14.658;2022-11-20T07:28:04;100340.00;;;4.36;77.09
22572;BME280;11452;53.368;14.658;2022-11-20T07:33:09;100332.98;;;4.35;76.99
22572;BME280;11452;53.368;14.658;2022-11-20T07:38:16;100343.27;;;4.31;76.83
22572;BME280;11452;53.368;14.658;2022-11-20T07:43:22;100340.56;;;4.33;77.23
22572;BME280;11452;53.368;14.658;2022-11-20T07:48:27;100335.86;;;4.41;76.98
22572;BME280;11452;53.368;14.658;2022-11-20T07:53:33;100330.95;;;4.30;76.44
22572;BME280;11452;53.368;14.658;2022-11-20T07:58:38;100326.48;;;4.32;76.93
22572;BME280;11452;53.368;14.658;2022-11-20T08:03:43;100327.58;;;4.38;76.67
22572;BME280;11452;53.368;14.658;2022-11-20T08:08:49;100328.09;;;4.36;76.55
22572;BME280;11452;53.368;14.658;2022-11-20T08:13:54;100326.02;;;4.33;76.46
22572;BME280;11452;53.368;14.658;2022-11-20T08:19:18;100322.10;;;4.31;76.26
22572;BME280;11452;53.368;14.658;2022-11-20T08:24:24;100333.44;;;4.35;76.95
22572;BME280;11452;53.368;14.658;2022-11-20T08:29:30;100319.80;;;4.45;76.64
22572;BME280;11452;53.368;14.658;2022-11-20T08:34:36;100321.61;;;4.45;76.46
22572;BME280;11452;53.368;14.658;2022-11-20T08:39:42;100318.09;;;4.44;76.67
22572;BME280;11452;53.368;14.658;2022-11-20T08:44:47;100317.44;;;4.49;76.55
22572;BME280;11452;53.368;14.658;2022-11-20T08:49:53;100310.77;;;4.51;76.62
22572;BME280;11452;53.368;14.658;2022-11-20T08:54:58;100309.04;;;4.50;76.23
22572;BME280;11452;53.368;14.658;2022-11-20T09:00:05;100313.13;;;4.59;76.48
22572;BME280;11452;53.368;14.658;2022-11-20T09:05:12;100304.02;;;4.66;76.36
22572;BME280;11452;53.368;14.658;2022-11-20T09:10:18;100307.98;;;4.66;75.85
22572;BME280;11452;53.368;14.658;2022-11-20T09:15:26;100315.00;;;4.67;76.40
22572;BME280;11452;53.368;14.658;2022-11-20T09:20:32;100307.41;;;4.69;75.72
22572;BME280;11452;53.368;14.658;2022-11-20T09:25:37;100310.92;;;4.70;76.01
22572;BME280;11452;53.368;14.658;2022-11-20T09:30:45;100303.67;;;4.75;75.97
22572;BME280;11452;53.368;14.658;2022-11-20T09:35:50;100310.63;;;4.77;75.77
22572;BME280;11452;53.368;14.658;2022-11-20T09:41:04;100296.55;;;4.87;75.67
22572;BME280;11452;53.368;14.658;2022-11-20T09:56:59;100291.03;;;5.03;75.42
22572;BME280;11452;53.368;14.658;2022-11-20T10:02:17;100290.17;;;5.03;74.85
22572;BME280;11452;53.368;14.658;2022-11-20T10:12:44;100284.11;;;5.01;75.38
22572;BME280;11452;53.368;14.658;2022-11-20T10:23:26;100271.39;;;4.99;74.27
22572;BME280;11452;53.368;14.658;2022-11-20T10:33:43;100271.98;;;4.83;74.22
22572;BME280;11452;53.368;14.658;2022-11-20T10:39:04;100272.09;;;5.02;74.46
22572;BME280;11452;53.368;14.658;2022-11-20T10:44:28;100270.30;;;4.93;73.99
22572;BME280;11452;53.368;14.658;2022-11-20T10:49:55;100264.37;;;5.08;74.32
22572;BME280;11452;53.368;14.658;2022-11-20T11:00:23;100258.84;;;4.82;73.61
22572;BME280;11452;53.368;14.658;2022-11-20T11:11:18;100252.93;;;4.85;73.33
22572;BME280;11452;53.368;14.658;2022-11-20T11:16:26;100249.22;;;4.58;73.38
22572;BME280;11452;53.368;14.658;2022-11-20T11:21:31;100248.20;;;4.72;74.30
22572;BME280;11452;53.368;14.658;2022-11-20T11:26:37;100238.88;;;4.73;73.96
22572;BME280;11452;53.368;14.658;2022-11-20T11:31:43;100243.42;;;4.81;73.74
22572;BME280;11452;53.368;14.658;2022-11-20T11:36:55;100244.34;;;4.80;73.54
22572;BME280;11452;53.368;14.658;2022-11-20T11:42:00;100239.45;;;4.81;73.58
22572;BME280;11452;53.368;14.658;2022-11-20T11:52:27;100238.52;;;4.61;73.31
22572;BME280;11452;53.368;14.658;2022-11-20T11:58:09;100244.35;;;4.69;73.38
22572;BME280;11452;53.368;14.658;2022-11-20T12:03:19;100234.51;;;4.72;72.80
22572;BME280;11452;53.368;14.658;2022-11-20T12:08:32;100223.91;;;4.94;74.66
22572;BME280;11452;53.368;14.658;2022-11-20T12:14:00;100223.91;;;4.94;74.66
22572;BME280;11452;53.368;14.658;2022-11-20T12:19:14;100213.34;;;5.14;74.35
22572;BME280;11452;53.368;14.658;2022-11-20T12:29:50;100208.97;;;5.13;73.39
22572;BME280;11452;53.368;14.658;2022-11-20T12:35:00;100208.30;;;5.08;72.44
22572;BME280;11452;53.368;14.658;2022-11-20T12:40:15;100197.03;;;4.93;72.46
22572;BME280;11452;53.368;14.658;2022-11-20T12:46:05;100196.35;;;4.88;73.00
22572;BME280;11452;53.368;14.658;2022-11-20T12:50:47;100198.54;;;4.88;72.83
22572;BME280;11452;53.368;14.658;2022-11-20T13:07:01;100190.97;;;4.47;72.10
22572;BME280;11452;53.368;14.658;2022-11-20T13:17:40;100186.86;;;4.40;72.66
22572;BME280;11452;53.368;14.658;2022-11-20T13:22:49;100183.59;;;4.34;73.03
22572;BME280;11452;53.368;14.658;2022-11-20T13:27:59;100182.64;;;4.25;72.39
22572;BME280;11452;53.368;14.658;2022-11-20T13:33:21;100173.50;;;4.22;73.01
22572;BME280;11452;53.368;14.658;2022-11-20T13:38:16;100168.96;;;4.25;73.49
22572;BME280;11452;53.368;14.658;2022-11-20T13:43:41;100165.63;;;4.08;73.23
22572;BME280;11452;53.368;14.658;2022-11-20T13:48:47;100167.13;;;4.15;73.72
22572;BME280;11452;53.368;14.658;2022-11-20T13:59:40;100152.29;;;4.23;73.57
22572;BME280;11452;53.368;14.658;2022-11-20T14:04:47;100156.31;;;4.10;73.16
22572;BME280;11452;53.368;14.658;2022-11-20T14:09:56;100149.07;;;4.15;73.51
22572;BME280;11452;53.368;14.658;2022-11-20T14:15:03;100149.77;;;4.08;73.50
22572;BME280;11452;53.368;14.658;2022-11-20T14:20:17;100151.03;;;4.10;73.91
22572;BME280;11452;53.368;14.658;2022-11-20T14:25:21;100141.31;;;4.10;73.89
22572;BME280;11452;53.368;14.658;2022-11-20T14:30:44;100140.08;;;3.97;73.51
22572;BME280;11452;53.368;14.658;2022-11-20T14:35:53;100147.89;;;4.00;73.95
22572;BME280;11452;53.368;14.658;2022-11-20T14:41:16;100143.81;;;4.03;74.07
22572;BME280;11452;53.368;14.658;2022-11-20T14:46:22;100144.28;;;4.03;74.09
22572;BME280;11452;53.368;14.658;2022-11-20T14:51:36;100137.35;;;3.89;74.10
22572;BME280;11452;53.368;14.658;2022-11-20T14:56:55;100134.82;;;3.86;73.93
22572;BME280;11452;53.368;14.658;2022-11-20T15:02:07;100135.23;;;3.63;73.94
22572;BME280;11452;53.368;14.658;2022-11-20T15:07:22;100138.22;;;3.66;74.87
22572;BME280;11452;53.368;14.658;2022-11-20T15:12:19;100135.71;;;3.96;75.28
22572;BME280;11452;53.368;14.658;2022-11-20T15:17:25;100139.53;;;3.89;74.58
22572;BME280;11452;53.368;14.658;2022-11-20T15:22:30;100127.12;;;3.79;75.07
22572;BME280;11452;53.368;14.658;2022-11-20T15:27:35;100123.84;;;3.85;75.16
22572;BME280;11452;53.368;14.658;2022-11-20T15:32:42;100121.26;;;3.83;75.13
22572;BME280;11452;53.368;14.658;2022-11-20T15:37:47;100119.36;;;3.87;75.30
22572;BME280;11452;53.368;14.658;2022-11-20T15:42:53;100126.00;;;3.97;75.41
22572;BME280;11452;53.368;14.658;2022-11-20T15:48:18;100122.61;;;4.05;75.26
22572;BME280;11452;53.368;14.658;2022-11-20T15:53:18;100125.73;;;4.14;75.42
22572;BME280;11452;53.368;14.658;2022-11-20T15:58:24;100118.59;;;4.06;75.16
22572;BME280;11452;53.368;14.658;2022-11-20T16:03:30;100114.85;;;4.00;75.20
22572;BME280;11452;53.368;14.658;2022-11-20T16:08:36;100108.93;;;4.05;75.34
22572;BME280;11452;53.368;14.658;2022-11-20T16:13:41;100111.77;;;4.11;75.32
22572;BME280;11452;53.368;14.658;2022-11-20T16:19:05;100112.38;;;4.07;75.08
22572;BME280;11452;53.368;14.658;2022-11-20T16:24:13;100111.12;;;4.06;75.00
22572;BME280;11452;53.368;14.658;2022-11-20T16:29:20;100106.03;;;3.90;74.78
22572;BME280;11452;53.368;14.658;2022-11-20T16:34:25;100119.36;;;3.87;75.25
22572;BME280;11452;53.368;14.658;2022-11-20T16:39:32;100110.34;;;3.80;75.05
22572;BME280;11452;53.368;14.658;2022-11-20T16:44:37;100115.92;;;3.85;75.80
22572;BME280;11452;53.368;14.658;2022-11-20T16:49:43;100109.77;;;3.84;75.73
22572;BME280;11452;53.368;14.658;2022-11-20T16:54:48;100110.75;;;3.81;75.52
22572;BME280;11452;53.368;14.658;2022-11-20T16:59:54;100118.30;;;3.91;76.00
22572;BME280;11452;53.368;14.658;2022-11-20T17:05:01;100118.70;;;3.92;75.90
22572;BME280;11452;53.368;14.658;2022-11-20T17:10:07;100116.00;;;3.93;76.05
22572;BME280;11452;53.368;14.658;2022-11-20T17:15:13;100106.06;;;4.00;75.97
22572;BME280;11452;53.368;14.658;2022-11-20T17:20:18;100111.46;;;3.97;75.85
22572;BME280;11452;53.368;14.658;2022-11-20T17:25:24;100103.77;;;3.91;75.88
22572;BME280;11452;53.368;14.658;2022-11-20T17:30:30;100105.86;;;3.82;75.52
22572;BME280;11452;53.368;14.658;2022-11-20T17:35:36;100110.98;;;3.87;75.79
22572;BME280;11452;53.368;14.658;2022-11-20T17:40:41;100105.92;;;3.81;76.16
22572;BME280;11452;53.368;14.658;2022-11-20T17:45:46;100104.43;;;3.86;75.77
22572;BME280;11452;53.368;14.658;2022-11-20T17:50:52;100104.63;;;3.91;76.19
22572;BME280;11452;53.368;14.658;2022-11-20T17:55:59;100099.34;;;4.03;76.38
22572;BME280;11452;53.368;14.658;2022-11-20T18:01:23;100087.33;;;4.06;76.44
22572;BME280;11452;53.368;14.658;2022-11-20T18:06:29;100084.91;;;4.00;76.02
22572;BME280;11452;53.368;14.658;2022-11-20T18:11:37;100095.26;;;3.94;76.12
22572;BME280;11452;53.368;14.658;2022-11-20T18:16:46;100091.64;;;3.97;75.90
22572;BME280;11452;53.368;14.658;2022-11-20T18:21:52;100093.53;;;3.93;76.04
22572;BME280;11452;53.368;14.658;2022-11-20T18:26:57;100096.06;;;3.96;75.75
22572;BME280;11452;53.368;14.658;2022-11-20T18:32:04;100089.69;;;3.90;75.84
22572;BME280;11452;53.368;14.658;2022-11-20T18:37:09;100093.34;;;3.88;75.72
22572;BME280;11452;53.368;14.658;2022-11-20T18:42:17;100084.14;;;3.86;75.99
22572;BME280;11452;53.368;14.658;2022-11-20T18:47:40;100089.73;;;4.00;76.13
22572;BME280;11452;53.368;14.658;2022-11-20T18:52:47;100086.75;;;3.98;75.78
22572;BME280;11452;53.368;14.658;2022-11-20T18:57:52;100079.40;;;3.94;75.78
22572;BME280;11452;53.368;14.658;2022-11-20T19:02:58;100083.80;;;3.83;75.75
22572;BME280;11452;53.368;14.658;2022-11-20T19:08:04;100084.84;;;3.79;75.78
22572;BME280;11452;53.368;14.658;2022-11-20T19:13:09;100077.77;;;3.80;76.07
22572;BME280;11452;53.368;14.658;2022-11-20T19:18:15;100073.34;;;3.80;75.57
22572;BME280;11452;53.368;14.658;2022-11-20T19:23:20;100079.47;;;3.71;75.97
22572;BME280;11452;53.368;14.658;2022-11-20T19:28:28;100083.43;;;3.71;75.88
22572;BME280;11452;53.368;14.658;2022-11-20T19:33:34;100089.77;;;3.77;76.16
22572;BME280;11452;53.368;14.658;2022-11-20T19:38:41;100089.61;;;3.81;76.04
22572;BME280;11452;53.368;14.658;2022-11-20T19:43:49;100093.52;;;3.83;76.23
22572;BME280;11452;53.368;14.658;2022-11-20T19:48:55;100100.29;;;3.78;76.25
22572;BME280;11452;53.368;14.658;2022-11-20T19:54:01;100104.33;;;3.65;75.62
22572;BME280;11452;53.368;14.658;2022-11-20T19:59:07;100095.84;;;3.69;76.28
22572;BME280;11452;53.368;14.658;2022-11-20T20:04:13;100088.86;;;3.78;76.20
22572;BME280;11452;53.368;14.658;2022-11-20T20:09:18;100078.00;;;3.74;76.07
22572;BME280;11452;53.368;14.658;2022-11-20T20:14:26;100076.16;;;3.76;75.97
22572;BME280;11452;53.368;14.658;2022-11-20T20:19:31;100080.64;;;3.74;75.79
22572;BME280;11452;53.368;14.658;2022-11-20T20:24:37;100079.67;;;3.76;75.83
22572;BME280;11452;53.368;14.658;2022-11-20T20:29:42;100079.98;;;3.69;75.81
22572;BME280;11452;53.368;14.658;2022-11-20T20:34:48;100077.40;;;3.67;75.62
22572;BME280;11452;53.368;14.658;2022-11-20T20:39:53;100074.87;;;3.64;75.63
22572;BME280;11452;53.368;14.658;2022-11-20T20:44:59;100068.66;;;3.65;75.79
22572;BME280;11452;53.368;14.658;2022-11-20T20:50:11;100070.39;;;3.66;76.07
22572;BME280;11452;53.368;14.658;2022-11-20T20:55:17;100068.55;;;3.68;75.46
22572;BME280;11452;53.368;14.658;2022-11-20T21:00:22;100068.49;;;3.58;75.88
22572;BME280;11452;53.368;14.658;2022-11-20T21:05:28;100060.85;;;3.62;76.00
22572;BME280;11452;53.368;14.658;2022-11-20T21:10:33;100061.25;;;3.63;75.82
22572;BME280;11452;53.368;14.658;2022-11-20T21:15:39;100067.23;;;3.68;76.08
22572;BME280;11452;53.368;14.658;2022-11-20T21:20:45;100063.21;;;3.70;75.77
22572;BME280;11452;53.368;14.658;2022-11-20T21:26:09;100059.56;;;3.72;75.73
22572;BME280;11452;53.368;14.658;2022-11-20T21:31:17;100051.84;;;3.68;75.78
22572;BME280;11452;53.368;14.658;2022-11-20T21:36:26;100048.85;;;3.65;75.54
22572;BME280;11452;53.368;14.658;2022-11-20T21:41:33;100043.57;;;3.65;75.76
22572;BME280;11452;53.368;14.658;2022-11-20T21:46:40;100034.20;;;3.68;75.88
22572;BME280;11452;53.368;14.658;2022-11-20T21:51:46;100029.95;;;3.64;75.50
22572;BME280;11452;53.368;14.658;2022-11-20T21:56:52;100024.50;;;3.69;75.86
22572;BME280;11452;53.368;14.658;2022-11-20T22:01:57;100026.11;;;3.61;75.35
22572;BME280;11452;53.368;14.658;2022-11-20T22:07:04;100027.14;;;3.69;75.83
22572;BME280;11452;53.368;14.658;2022-11-20T22:12:10;100017.61;;;3.65;75.58
22572;BME280;11452;53.368;14.658;2022-11-20T22:17:16;100020.79;;;3.73;76.06
22572;BME280;11452;53.368;14.658;2022-11-20T22:22:23;100008.14;;;3.81;76.12
22572;BME280;11452;53.368;14.658;2022-11-20T22:27:28;100006.65;;;3.96;76.08
22572;BME280;11452;53.368;14.658;2022-11-20T22:32:34;99994.30;;;3.96;75.42
22572;BME280;11452;53.368;14.658;2022-11-20T22:37:39;99994.41;;;3.93;75.97
22572;BME280;11452;53.368;14.658;2022-11-20T22:42:45;99987.38;;;4.04;75.78
22572;BME280;11452;53.368;14.658;2022-11-20T22:47:51;99993.44;;;3.96;75.43
22572;BME280;11452;53.368;14.658;2022-11-20T22:52:56;99989.75;;;3.90;75.11
22572;BME280;11452;53.368;14.658;2022-11-20T22:58:02;99978.50;;;3.95;75.64
22572;BME280;11452;53.368;14.658;2022-11-20T23:03:07;99978.50;;;3.95;75.39
22572;BME280;11452;53.368;14.658;2022-11-20T23:08:13;99980.09;;;3.89;74.77
22572;BME280;11452;53.368;14.658;2022-11-20T23:13:18;99966.32;;;3.80;75.11
22572;BME280;11452;53.368;14.658;2022-11-20T23:18:23;99970.23;;;3.82;75.44
22572;BME280;11452;53.368;14.658;2022-11-20T23:23:29;99971.89;;;3.95;75.32
22572;BME280;11452;53.368;14.658;2022-11-20T23:28:37;99977.45;;;3.99;75.28
22572;BME280;11452;53.368;14.658;2022-11-20T23:33:44;99978.47;;;4.06;75.18
22572;BME280;11452;53.368;14.658;2022-11-20T23:38:50;99977.39;;;4.10;75.18
22572;BME280;11452;53.368;14.658;2022-11-20T23:43:55;99965.70;;;4.16;74.93
22572;BME280;11452;53.368;14.658;2022-11-20T23:49:01;99965.37;;;4.13;74.77
22572;BME280;11452;53.368;14.658;2022-11-20T23:54:06;99961.86;;;4.13;74.86
22572;BME280;11452;53.368;14.658;2022-11-20T23:59:12;99957.70;;;4.17;74.70
